<?xml version="1.0" encoding="UTF-8" standalone="no" ?>
<gpx xmlns="http://www.topografix.com/GPX/1/1" xmlns:xsi="http://www.w3.org/2001/XMLSchema-instance" xsi:schemaLocation="http://www.topografix.com/GPX/1/1 http://www.topografix.com/GPX/1/1/gpx.xsd" version="1.1" creator="VisuGPX - https://www.visugpx.com">
  <metadata>
    <name>14517975-Marseillan plage à ville</name>
  </metadata>
  <trk>
    <name><![CDATA[14517975-Marseillan plage à ville]]></name>
    <trkseg>
      <trkpt lat="43.31258" lon="3.54953">
        <ele>1</ele>
        <time>2022-04-04T19:40:18Z</time>
      </trkpt>
      <trkpt lat="43.31377" lon="3.54787">
        <ele>3</ele>
        <time>2022-04-04T19:40:48Z</time>
      </trkpt>
      <trkpt lat="43.31325" lon="3.54687">
        <ele>3</ele>
        <time>2022-04-04T19:41:04Z</time>
      </trkpt>
      <trkpt lat="43.31414" lon="3.54539">
        <ele>2</ele>
        <time>2022-04-04T19:41:29Z</time>
      </trkpt>
      <trkpt lat="43.31485" lon="3.54369">
        <ele>1.4</ele>
        <time>2022-04-04T19:41:54Z</time>
      </trkpt>
      <trkpt lat="43.31639" lon="3.54471">
        <ele>2</ele>
        <time>2022-04-04T19:42:25Z</time>
      </trkpt>
      <trkpt lat="43.31691" lon="3.54596">
        <ele>3</ele>
        <time>2022-04-04T19:42:43Z</time>
      </trkpt>
      <trkpt lat="43.31763" lon="3.547">
        <ele>3</ele>
        <time>2022-04-04T19:43:02Z</time>
      </trkpt>
      <trkpt lat="43.31819" lon="3.54728">
        <ele>3</ele>
        <time>2022-04-04T19:43:13Z</time>
      </trkpt>
      <trkpt lat="43.31945" lon="3.54593">
        <ele>2</ele>
        <time>2022-04-04T19:43:41Z</time>
      </trkpt>
      <trkpt lat="43.31927" lon="3.54502">
        <ele>1</ele>
        <time>2022-04-04T19:43:53Z</time>
      </trkpt>
      <trkpt lat="43.31968" lon="3.54135">
        <ele>1</ele>
        <time>2022-04-04T19:44:41Z</time>
      </trkpt>
      <trkpt lat="43.32018" lon="3.53975">
        <ele>4</ele>
        <time>2022-04-04T19:45:04Z</time>
      </trkpt>
      <trkpt lat="43.32106" lon="3.53842">
        <ele>2</ele>
        <time>2022-04-04T19:45:27Z</time>
      </trkpt>
      <trkpt lat="43.3211" lon="3.53775">
        <ele>2</ele>
        <time>2022-04-04T19:45:36Z</time>
      </trkpt>
      <trkpt lat="43.32097" lon="3.53709">
        <ele>2</ele>
        <time>2022-04-04T19:45:45Z</time>
      </trkpt>
      <trkpt lat="43.32047" lon="3.53603">
        <ele>2</ele>
        <time>2022-04-04T19:46:01Z</time>
      </trkpt>
      <trkpt lat="43.32032" lon="3.53445">
        <ele>1</ele>
        <time>2022-04-04T19:46:22Z</time>
      </trkpt>
      <trkpt lat="43.3209" lon="3.53458">
        <ele>1.4</ele>
        <time>2022-04-04T19:46:32Z</time>
      </trkpt>
      <trkpt lat="43.32141" lon="3.53169">
        <ele>3</ele>
        <time>2022-04-04T19:47:11Z</time>
      </trkpt>
      <trkpt lat="43.32484" lon="3.53113">
        <ele>1</ele>
        <time>2022-04-04T19:48:12Z</time>
      </trkpt>
      <trkpt lat="43.32647" lon="3.5311">
        <ele>1</ele>
        <time>2022-04-04T19:48:41Z</time>
      </trkpt>
      <trkpt lat="43.32912" lon="3.53218">
        <ele>1</ele>
        <time>2022-04-04T19:49:30Z</time>
      </trkpt>
      <trkpt lat="43.33211" lon="3.53557">
        <ele>1</ele>
        <time>2022-04-04T19:50:39Z</time>
      </trkpt>
      <trkpt lat="43.33623" lon="3.53705">
        <ele>1</ele>
        <time>2022-04-04T19:51:55Z</time>
      </trkpt>
      <trkpt lat="43.33844" lon="3.53672">
        <ele>2</ele>
        <time>2022-04-04T19:52:34Z</time>
      </trkpt>
      <trkpt lat="43.33865" lon="3.53787">
        <ele>2</ele>
        <time>2022-04-04T19:52:50Z</time>
      </trkpt>
      <trkpt lat="43.33948" lon="3.53807">
        <ele>2</ele>
        <time>2022-04-04T19:53:05Z</time>
      </trkpt>
      <trkpt lat="43.33887" lon="3.53759">
        <ele>2</ele>
        <time>2022-04-04T19:53:17Z</time>
      </trkpt>
      <trkpt lat="43.33868" lon="3.53616">
        <ele>3</ele>
        <time>2022-04-04T19:53:36Z</time>
      </trkpt>
      <trkpt lat="43.34204" lon="3.53332">
        <ele>1</ele>
        <time>2022-04-04T19:54:46Z</time>
      </trkpt>
      <trkpt lat="43.34479" lon="3.53192">
        <ele>2</ele>
        <time>2022-04-04T19:55:38Z</time>
      </trkpt>
      <trkpt lat="43.34841" lon="3.53118">
        <ele>3</ele>
        <time>2022-04-04T19:56:44Z</time>
      </trkpt>
      <trkpt lat="43.35169" lon="3.53187">
        <ele>3</ele>
        <time>2022-04-04T19:57:43Z</time>
      </trkpt>
      <trkpt lat="43.35125" lon="3.5334">
        <ele>2</ele>
        <time>2022-04-04T19:58:04Z</time>
      </trkpt>
      <trkpt lat="43.35286" lon="3.53422">
        <ele>2</ele>
        <time>2022-04-04T19:58:34Z</time>
      </trkpt>
      <trkpt lat="43.35331" lon="3.53243">
        <ele>2</ele>
        <time>2022-04-04T19:58:59Z</time>
      </trkpt>
      <trkpt lat="43.35381" lon="3.53133">
        <ele>5</ele>
        <time>2022-04-04T19:59:16Z</time>
      </trkpt>
      <trkpt lat="43.35395" lon="3.53156">
        <ele>5</ele>
        <time>2022-04-04T19:59:20Z</time>
      </trkpt>
      <trkpt lat="43.35379" lon="3.53241">
        <ele>3</ele>
        <time>2022-04-04T19:59:31Z</time>
      </trkpt>
      <trkpt lat="43.35657" lon="3.5335">
        <ele>5</ele>
        <time>2022-04-04T20:00:22Z</time>
      </trkpt>
      <trkpt lat="43.35783" lon="3.53488">
        <ele>2</ele>
        <time>2022-04-04T20:00:51Z</time>
      </trkpt>
      <trkpt lat="43.36002" lon="3.53537">
        <ele>2</ele>
        <time>2022-04-04T20:01:31Z</time>
      </trkpt>
      <trkpt lat="43.36171" lon="3.5359">
        <ele>2</ele>
        <time>2022-04-04T20:02:01Z</time>
      </trkpt>
      <trkpt lat="43.36486" lon="3.53769">
        <ele>2</ele>
        <time>2022-04-04T20:03:02Z</time>
      </trkpt>
    </trkseg>
  </trk>
</gpx>